createdAt,value
2023-04-02T00:00:18.440Z,4.65
2023-04-02T00:05:31.608Z,5.75
2023-04-02T00:10:29.214Z,6.65
2023-04-02T00:15:21.062Z,7.53
2023-04-02T00:20:16.902Z,5.63
2023-04-02T00:25:13.774Z,8.85
2023-04-02T00:30:07.337Z,9.45
2023-04-02T00:34:59.741Z,7.45
2023-04-02T00:39:57.410Z,7.93
2023-04-02T00:44:50.138Z,6.30
2023-04-02T00:49:42.296Z,8.45
2023-04-02T00:55:02.781Z,4.10
2023-04-02T01:00:21.800Z,5.18
2023-04-02T01:05:16.897Z,5.47
2023-04-02T01:10:56.689Z,6.22
2023-04-02T01:16:19.661Z,8.82
2023-04-02T01:21:53.006Z,9.20
2023-04-02T01:27:20.256Z,5.15
2023-04-02T01:32:14.990Z,4.28
2023-04-02T01:37:27.645Z,3.75
2023-04-02T01:42:32.317Z,2.88
2023-04-02T01:47:27.481Z,4.95
2023-04-02T01:52:34.853Z,5.93
2023-04-02T01:57:28.419Z,3.92
2023-04-02T02:02:22.137Z,4.93
2023-04-02T02:07:20.756Z,6.50
2023-04-02T02:12:17.050Z,6.78
2023-04-02T02:17:15.858Z,4.22
2023-04-02T02:22:19.177Z,4.43
2023-04-02T02:27:23.027Z,7.78
2023-04-02T02:32:27.838Z,4.57
2023-04-02T02:37:25.489Z,6.90
2023-04-02T02:42:38.935Z,8.90
2023-04-02T02:47:37.625Z,4.30
2023-04-02T02:52:35.484Z,6.70
2023-04-02T02:57:48.569Z,6.90
2023-04-02T03:02:42.438Z,3.40
2023-04-02T03:07:37.591Z,11.60
2023-04-02T03:12:52.495Z,5.10
2023-04-02T03:18:01.480Z,4.40
2023-04-02T03:23:03.805Z,7.07
2023-04-02T03:28:02.054Z,4.93
2023-04-02T03:33:00.697Z,4.97
2023-04-02T03:42:53.406Z,13.52
2023-04-02T03:47:54.959Z,17.23
2023-04-02T03:52:47.960Z,17.73
2023-04-02T03:57:49.542Z,22.50
2023-04-02T04:02:47.867Z,27.73
2023-04-02T04:07:43.769Z,30.67
2023-04-02T04:12:43.978Z,31.38
2023-04-02T04:18:02.599Z,33.03
2023-04-02T04:23:09.908Z,32.50
2023-04-02T04:28:16.834Z,30.10
2023-04-02T04:33:22.633Z,31.77
2023-04-02T04:38:49.523Z,30.50
2023-04-02T04:43:48.517Z,29.73
2023-04-02T04:49:05.281Z,27.13
2023-04-02T04:53:58.430Z,27.70
2023-04-02T04:59:11.348Z,27.13
2023-04-02T05:04:03.864Z,29.80
2023-04-02T05:09:03.604Z,30.23
2023-04-02T05:14:02.601Z,26.00
2023-04-02T05:19:42.553Z,31.17
2023-04-02T05:24:53.615Z,30.73
2023-04-02T05:29:49.557Z,34.20
2023-04-02T05:34:45.758Z,31.92
2023-04-02T05:39:37.741Z,32.42
2023-04-02T05:44:53.811Z,31.52
2023-04-02T05:49:51.134Z,34.42
2023-04-02T05:54:51.315Z,32.57
2023-04-02T05:59:50.484Z,30.05
2023-04-02T06:04:49.910Z,25.48
2023-04-02T06:10:12.575Z,22.45
2023-04-02T06:15:07.046Z,22.45
2023-04-02T06:20:01.198Z,26.80
2023-04-02T06:25:05.407Z,20.50
2023-04-02T06:30:07.567Z,22.33
2023-04-02T06:34:59.550Z,23.90
2023-04-02T06:39:51.945Z,23.25
2023-04-02T06:44:45.546Z,25.48
2023-04-02T06:50:11.554Z,32.67
2023-04-02T06:55:18.756Z,30.17
2023-04-02T07:00:49.890Z,33.15
2023-04-02T07:05:53.067Z,35.63
2023-04-02T07:10:45.050Z,47.92
2023-04-02T07:15:38.327Z,46.08
2023-04-02T07:20:33.376Z,53.25
2023-04-02T07:25:30.355Z,63.53
2023-04-02T07:30:22.407Z,69.75
2023-04-02T07:35:14.212Z,65.75
2023-04-02T07:40:09.347Z,65.57
2023-04-02T07:45:01.292Z,65.20
2023-04-02T07:49:54.757Z,71.55
2023-04-02T07:54:46.763Z,75.78
2023-04-02T07:59:38.548Z,78.40
2023-04-02T08:04:30.516Z,75.18
2023-04-02T08:09:22.369Z,83.03
2023-04-02T08:14:14.722Z,80.00
2023-04-02T08:19:06.815Z,73.43
2023-04-02T08:23:58.653Z,68.68
2023-04-02T08:28:50.551Z,73.53
2023-04-02T08:33:42.447Z,76.70
2023-04-02T08:38:34.293Z,71.13
2023-04-02T08:43:42.097Z,69.15
2023-04-02T08:48:36.614Z,78.43
2023-04-02T08:53:35.790Z,70.60
2023-04-02T08:58:43.131Z,69.07
2023-04-02T09:03:44.890Z,73.30
2023-04-02T09:08:37.144Z,63.05
2023-04-02T09:13:31.333Z,61.72
2023-04-02T09:18:23.725Z,63.00
2023-04-02T09:23:19.827Z,64.15
2023-04-02T09:28:12.081Z,60.78
2023-04-02T09:33:09.773Z,59.47
2023-04-02T09:38:07.610Z,50.87
2023-04-02T09:43:21.174Z,47.42
2023-04-02T09:48:30.796Z,48.45
2023-04-02T09:53:33.549Z,48.00
2023-04-02T09:58:25.854Z,49.50
2023-04-02T10:03:25.869Z,46.80
2023-04-02T10:08:28.262Z,40.90
2023-04-02T10:13:24.620Z,42.60
2023-04-02T10:18:44.334Z,39.38
2023-04-02T10:23:36.489Z,37.80
2023-04-02T10:29:04.484Z,35.40
2023-04-02T10:34:03.404Z,33.45
2023-04-02T10:39:05.137Z,37.85
2023-04-02T10:44:16.762Z,45.88
2023-04-02T10:49:20.126Z,41.70
2023-04-02T10:54:24.923Z,43.10
2023-04-02T10:59:37.494Z,36.50
2023-04-02T11:04:41.901Z,27.83
2023-04-02T11:09:41.354Z,27.55
2023-04-02T11:14:33.962Z,25.85
2023-04-02T11:19:28.956Z,18.50
2023-04-02T11:24:37.463Z,15.57
2023-04-02T11:29:34.759Z,20.83
2023-04-02T11:34:41.980Z,19.25
2023-04-02T11:39:54.260Z,18.98
2023-04-02T11:44:46.155Z,11.80
2023-04-02T11:49:58.918Z,12.25
2023-04-02T11:55:19.952Z,11.05
2023-04-02T12:00:22.519Z,15.68
2023-04-02T12:05:43.574Z,8.60
2023-04-02T12:10:56.252Z,9.75
2023-04-02T12:15:49.604Z,8.43
2023-04-02T12:20:42.961Z,8.32
2023-04-02T12:25:40.578Z,7.38
2023-04-02T12:30:32.882Z,7.03
2023-04-02T12:35:33.462Z,8.65
2023-04-02T12:40:26.821Z,8.57
2023-04-02T12:45:29.350Z,8.70
2023-04-02T12:50:23.099Z,10.30
2023-04-02T12:55:23.156Z,8.88
2023-04-02T13:00:25.086Z,6.72
2023-04-02T13:05:56.598Z,9.95
2023-04-02T13:10:57.120Z,9.50
2023-04-02T13:16:05.093Z,8.55
2023-04-02T13:21:05.061Z,7.57
2023-04-02T13:25:58.859Z,8.45
2023-04-02T13:30:50.869Z,6.88
2023-04-02T13:35:43.789Z,8.48
2023-04-02T13:40:37.713Z,5.03
2023-04-02T13:45:40.262Z,6.05
2023-04-02T13:50:35.033Z,3.72
2023-04-02T13:55:30.706Z,3.75
2023-04-02T14:00:22.912Z,2.53
2023-04-02T14:05:36.047Z,4.13
2023-04-02T14:10:53.353Z,1.50
2023-04-02T14:15:51.297Z,1.63
2023-04-02T14:21:01.143Z,2.97
2023-04-02T14:26:03.155Z,3.67
2023-04-02T14:31:13.233Z,2.50
2023-04-02T14:36:31.576Z,5.50
2023-04-02T14:41:35.352Z,3.20
2023-04-02T14:46:29.021Z,4.60
2023-04-02T14:51:31.241Z,4.35
2023-04-02T14:56:24.711Z,5.72
2023-04-02T15:01:27.861Z,7.03
2023-04-02T15:06:25.808Z,6.20
2023-04-02T15:11:26.308Z,6.85
2023-04-02T15:16:23.677Z,5.88
2023-04-02T15:21:29.715Z,9.70
2023-04-02T15:26:42.820Z,8.30
2023-04-02T15:31:36.016Z,7.70
2023-04-02T15:36:37.474Z,10.38
2023-04-02T15:41:41.065Z,8.48
2023-04-02T15:46:50.929Z,10.45
2023-04-02T15:52:20.180Z,11.05
2023-04-02T15:57:34.344Z,8.50
2023-04-02T16:03:07.746Z,9.52
2023-04-02T16:08:18.198Z,9.13
2023-04-02T16:13:39.974Z,8.65
2023-04-02T16:18:37.661Z,11.55
2023-04-02T16:23:36.285Z,9.97
2023-04-02T16:28:33.234Z,10.60
2023-04-02T16:33:59.752Z,10.70
2023-04-02T16:39:29.365Z,8.95
2023-04-02T16:44:39.826Z,5.35
2023-04-02T16:49:39.875Z,5.90
2023-04-02T16:54:37.509Z,4.55
2023-04-02T16:59:44.490Z,4.40
2023-04-02T17:04:39.849Z,15.32
2023-04-02T17:10:08.256Z,13.48
2023-04-02T17:15:20.707Z,7.63
2023-04-02T17:20:23.391Z,5.28
2023-04-02T17:25:21.517Z,6.38
2023-04-02T17:30:17.413Z,7.90
2023-04-02T17:35:32.370Z,6.85
2023-04-02T17:40:27.650Z,5.05
2023-04-02T17:45:42.187Z,3.85
2023-04-02T17:50:42.860Z,6.53
2023-04-02T17:55:52.759Z,6.32
2023-04-02T18:01:26.462Z,7.43
2023-04-02T18:06:33.320Z,6.93
2023-04-02T18:11:48.383Z,10.02
2023-04-02T18:16:54.862Z,12.77
2023-04-02T18:22:19.286Z,7.85
2023-04-02T18:27:38.649Z,8.60
2023-04-02T18:32:52.105Z,6.72
2023-04-02T18:38:12.527Z,5.35
2023-04-02T18:43:13.257Z,5.15
2023-04-02T18:48:21.097Z,5.15
2023-04-02T18:53:17.122Z,6.50
2023-04-02T18:58:18.002Z,8.40
2023-04-02T19:03:31.442Z,4.32
2023-04-02T19:08:54.170Z,10.15
2023-04-02T19:13:48.529Z,7.72
2023-04-02T19:18:58.399Z,7.15
2023-04-02T19:24:31.665Z,10.40
2023-04-02T19:29:44.540Z,8.82
2023-04-02T19:35:02.142Z,9.52
2023-04-02T19:40:00.445Z,11.45
2023-04-02T19:44:53.669Z,10.35
2023-04-02T19:49:45.745Z,10.38
2023-04-02T19:54:38.468Z,8.10
2023-04-02T19:59:30.493Z,11.35
2023-04-02T20:04:22.240Z,9.30
2023-04-02T20:09:14.095Z,10.25
2023-04-02T20:14:06.494Z,9.48
2023-04-02T20:18:58.809Z,8.50
2023-04-02T20:23:54.690Z,8.35
2023-04-02T20:28:46.757Z,5.25
2023-04-02T20:33:39.337Z,6.32
2023-04-02T20:38:32.174Z,6.57
2023-04-02T20:43:24.270Z,9.18
2023-04-02T20:48:16.964Z,6.90
2023-04-02T20:53:08.763Z,5.95
2023-04-02T20:58:00.881Z,7.28
2023-04-02T21:02:52.631Z,5.18
2023-04-02T21:07:44.572Z,5.75
2023-04-02T21:12:36.343Z,4.97
2023-04-02T21:17:28.189Z,5.18
2023-04-02T21:22:20.037Z,4.22
2023-04-02T21:27:12.797Z,8.48
2023-04-02T21:32:17.974Z,4.35
2023-04-02T21:37:13.040Z,7.80
2023-04-02T21:42:04.843Z,4.32
2023-04-02T21:46:56.834Z,3.47
2023-04-02T21:51:49.434Z,5.05
2023-04-02T21:56:44.184Z,5.20
2023-04-02T22:01:39.750Z,4.35
2023-04-02T22:06:36.062Z,3.83
2023-04-02T22:11:30.676Z,3.67
2023-04-02T22:16:26.002Z,5.13
2023-04-02T22:21:18.996Z,4.45
2023-04-02T22:26:12.769Z,3.83
2023-04-02T22:31:08.777Z,2.67
2023-04-02T22:36:01.216Z,4.63
2023-04-02T22:40:53.123Z,2.38
2023-04-02T22:45:47.013Z,3.95
2023-04-02T22:50:38.979Z,3.55
2023-04-02T22:55:31.102Z,3.53
2023-04-02T23:00:23.245Z,4.80
2023-04-02T23:05:15.054Z,3.97
2023-04-02T23:10:07.530Z,4.82
2023-04-02T23:14:59.961Z,4.03
2023-04-02T23:19:51.792Z,3.30
2023-04-02T23:24:43.544Z,3.67
2023-04-02T23:29:35.380Z,2.45
2023-04-02T23:34:27.197Z,2.47
2023-04-02T23:39:20.421Z,3.33
2023-04-02T23:44:12.357Z,3.75
2023-04-02T23:49:04.357Z,3.03
2023-04-02T23:53:56.439Z,4.60
2023-04-02T23:58:49.036Z,2.78
